sensor_id;sensor_type;location;lat;lon;timestamp;temperature;humidity
13598;DHT22;38563;54.258;12.574;2023-01-16T00:01:11;4.40;99.90
13598;DHT22;38563;54.258;12.574;2023-01-16T00:03:38;4.30;99.90
13598;DHT22;38563;54.258;12.574;2023-01-16T00:06:06;4.30;99.90
13598;DHT22;38563;54.258;12.574;2023-01-16T00:08:32;4.30;99.90
13598;DHT22;38563;54.258;12.574;2023-01-16T00:11:00;4.30;99.90
13598;DHT22;38563;54.258;12.574;2023-01-16T00:13:27;4.30;99.90
13598;DHT22;38563;54.258;12.574;2023-01-16T00:15:54;4.30;99.90
13598;DHT22;38563;54.258;12.574;2023-01-16T00:18:20;4.30;99.90
13598;DHT22;38563;54.258;12.574;2023-01-16T00:20:47;4.30;99.90
13598;DHT22;38563;54.258;12.574;2023-01-16T00:23:14;4.30;99.90
13598;DHT22;38563;54.258;12.574;2023-01-16T00:25:42;4.30;99.90
13598;DHT22;38563;54.258;12.574;2023-01-16T00:28:11;4.20;99.90
13598;DHT22;38563;54.258;12.574;2023-01-16T00:30:39;4.20;99.90
13598;DHT22;38563;54.258;12.574;2023-01-16T00:33:06;4.20;99.90
13598;DHT22;38563;54.258;12.574;2023-01-16T00:35:33;4.10;99.90
13598;DHT22;38563;54.258;12.574;2023-01-16T00:38:00;4.10;99.90
13598;DHT22;38563;54.258;12.574;2023-01-16T00:40:27;4.10;99.90
13598;DHT22;38563;54.258;12.574;2023-01-16T00:42:54;4.00;99.90
13598;DHT22;38563;54.258;12.574;2023-01-16T00:45:22;4.00;99.90
13598;DHT22;38563;54.258;12.574;2023-01-16T00:47:49;4.00;99.90
13598;DHT22;38563;54.258;12.574;2023-01-16T00:50:16;4.10;99.90
13598;DHT22;38563;54.258;12.574;2023-01-16T00:52:42;4.10;99.90
13598;DHT22;38563;54.258;12.574;2023-01-16T00:55:09;4.20;99.90
13598;DHT22;38563;54.258;12.574;2023-01-16T00:57:36;4.20;99.90
13598;DHT22;38563;54.258;12.574;2023-01-16T01:00:04;4.20;99.90
13598;DHT22;38563;54.258;12.574;2023-01-16T01:02:32;4.20;99.90
13598;DHT22;38563;54.258;12.574;2023-01-16T01:04:59;4.30;99.90
13598;DHT22;38563;54.258;12.574;2023-01-16T01:07:26;4.30;99.90
13598;DHT22;38563;54.258;12.574;2023-01-16T01:09:52;4.40;99.90
13598;DHT22;38563;54.258;12.574;2023-01-16T01:12:19;4.40;99.90
13598;DHT22;38563;54.258;12.574;2023-01-16T01:14:46;4.50;99.90
13598;DHT22;38563;54.258;12.574;2023-01-16T01:17:13;4.50;99.90
13598;DHT22;38563;54.258;12.574;2023-01-16T01:19:41;4.50;99.90
13598;DHT22;38563;54.258;12.574;2023-01-16T01:22:08;4.50;99.90
13598;DHT22;38563;54.258;12.574;2023-01-16T01:24:34;4.40;99.90
13598;DHT22;38563;54.258;12.574;2023-01-16T01:27:01;4.40;99.90
13598;DHT22;38563;54.258;12.574;2023-01-16T01:29:28;4.30;99.90
13598;DHT22;38563;54.258;12.574;2023-01-16T01:31:55;4.20;99.90
13598;DHT22;38563;54.258;12.574;2023-01-16T01:34:22;4.20;99.90
13598;DHT22;38563;54.258;12.574;2023-01-16T01:36:50;4.10;99.90
13598;DHT22;38563;54.258;12.574;2023-01-16T01:39:17;4.10;99.90
13598;DHT22;38563;54.258;12.574;2023-01-16T01:41:44;4.00;99.90
13598;DHT22;38563;54.258;12.574;2023-01-16T01:44:46;4.00;99.90
13598;DHT22;38563;54.258;12.574;2023-01-16T01:47:15;4.00;99.90
13598;DHT22;38563;54.258;12.574;2023-01-16T01:49:43;3.90;99.90
13598;DHT22;38563;54.258;12.574;2023-01-16T01:52:11;3.90;99.90
13598;DHT22;38563;54.258;12.574;2023-01-16T01:54:43;3.90;99.90
13598;DHT22;38563;54.258;12.574;2023-01-16T01:57:13;3.80;99.90
13598;DHT22;38563;54.258;12.574;2023-01-16T01:59:44;3.80;99.90
13598;DHT22;38563;54.258;12.574;2023-01-16T02:02:14;3.80;99.90
13598;DHT22;38563;54.258;12.574;2023-01-16T02:04:46;3.80;99.90
13598;DHT22;38563;54.258;12.574;2023-01-16T02:07:17;3.90;99.90
13598;DHT22;38563;54.258;12.574;2023-01-16T02:09:45;4.00;99.90
13598;DHT22;38563;54.258;12.574;2023-01-16T02:12:14;4.10;99.90
13598;DHT22;38563;54.258;12.574;2023-01-16T02:14:43;4.10;99.90
13598;DHT22;38563;54.258;12.574;2023-01-16T02:17:13;4.10;99.90
13598;DHT22;38563;54.258;12.574;2023-01-16T02:20:19;4.10;99.90
13598;DHT22;38563;54.258;12.574;2023-01-16T02:26:20;4.20;99.90
13598;DHT22;38563;54.258;12.574;2023-01-16T02:29:28;4.10;99.90
13598;DHT22;38563;54.258;12.574;2023-01-16T02:32:07;4.20;99.90
13598;DHT22;38563;54.258;12.574;2023-01-16T02:35:02;4.20;99.90
13598;DHT22;38563;54.258;12.574;2023-01-16T02:37:38;4.20;99.90
13598;DHT22;38563;54.258;12.574;2023-01-16T02:40:20;4.10;99.90
13598;DHT22;38563;54.258;12.574;2023-01-16T02:42:54;4.00;99.90
13598;DHT22;38563;54.258;12.574;2023-01-16T02:45:28;4.00;99.90
13598;DHT22;38563;54.258;12.574;2023-01-16T02:48:02;4.00;99.90
13598;DHT22;38563;54.258;12.574;2023-01-16T02:50:38;4.00;99.90
13598;DHT22;38563;54.258;12.574;2023-01-16T02:53:13;4.00;99.90
13598;DHT22;38563;54.258;12.574;2023-01-16T02:55:44;3.90;99.90
13598;DHT22;38563;54.258;12.574;2023-01-16T02:58:13;3.90;99.90
13598;DHT22;38563;54.258;12.574;2023-01-16T03:00:49;3.90;99.90
13598;DHT22;38563;54.258;12.574;2023-01-16T03:03:36;3.80;99.90
13598;DHT22;38563;54.258;12.574;2023-01-16T03:06:10;3.80;99.90
13598;DHT22;38563;54.258;12.574;2023-01-16T03:08:42;3.80;99.90
13598;DHT22;38563;54.258;12.574;2023-01-16T03:11:17;3.70;99.90
13598;DHT22;38563;54.258;12.574;2023-01-16T03:14:05;3.60;99.90
13598;DHT22;38563;54.258;12.574;2023-01-16T03:16:41;3.50;99.90
13598;DHT22;38563;54.258;12.574;2023-01-16T03:19:21;3.50;99.90
13598;DHT22;38563;54.258;12.574;2023-01-16T03:22:01;3.40;99.90
13598;DHT22;38563;54.258;12.574;2023-01-16T03:24:36;3.40;99.90
13598;DHT22;38563;54.258;12.574;2023-01-16T03:27:11;3.40;99.90
13598;DHT22;38563;54.258;12.574;2023-01-16T03:29:45;3.40;99.90
13598;DHT22;38563;54.258;12.574;2023-01-16T03:32:20;3.30;99.90
13598;DHT22;38563;54.258;12.574;2023-01-16T03:34:53;3.30;99.90
13598;DHT22;38563;54.258;12.574;2023-01-16T03:37:25;3.30;99.90
13598;DHT22;38563;54.258;12.574;2023-01-16T03:39:58;3.20;99.90
13598;DHT22;38563;54.258;12.574;2023-01-16T03:42:32;3.20;99.90
13598;DHT22;38563;54.258;12.574;2023-01-16T03:45:05;3.10;99.90
13598;DHT22;38563;54.258;12.574;2023-01-16T03:47:38;3.10;99.90
13598;DHT22;38563;54.258;12.574;2023-01-16T03:50:09;3.00;99.90
13598;DHT22;38563;54.258;12.574;2023-01-16T03:52:41;3.00;99.90
13598;DHT22;38563;54.258;12.574;2023-01-16T03:55:13;3.00;99.90
13598;DHT22;38563;54.258;12.574;2023-01-16T03:57:46;2.90;99.90
13598;DHT22;38563;54.258;12.574;2023-01-16T04:00:17;2.90;99.90
13598;DHT22;38563;54.258;12.574;2023-01-16T04:02:47;2.90;99.90
13598;DHT22;38563;54.258;12.574;2023-01-16T04:05:18;2.90;99.90
13598;DHT22;38563;54.258;12.574;2023-01-16T04:07:50;2.90;99.90
13598;DHT22;38563;54.258;12.574;2023-01-16T04:10:21;2.90;99.90
13598;DHT22;38563;54.258;12.574;2023-01-16T04:12:51;3.00;99.90
13598;DHT22;38563;54.258;12.574;2023-01-16T04:15:19;3.00;99.90
13598;DHT22;38563;54.258;12.574;2023-01-16T04:17:48;3.00;99.90
13598;DHT22;38563;54.258;12.574;2023-01-16T04:20:16;3.10;99.90
13598;DHT22;38563;54.258;12.574;2023-01-16T04:22:47;3.10;99.90
13598;DHT22;38563;54.258;12.574;2023-01-16T04:25:14;3.10;99.90
13598;DHT22;38563;54.258;12.574;2023-01-16T04:27:42;3.00;99.90
13598;DHT22;38563;54.258;12.574;2023-01-16T04:30:09;2.90;99.90
13598;DHT22;38563;54.258;12.574;2023-01-16T04:32:36;2.80;99.90
13598;DHT22;38563;54.258;12.574;2023-01-16T04:35:04;2.70;99.90
13598;DHT22;38563;54.258;12.574;2023-01-16T04:37:32;2.70;99.90
13598;DHT22;38563;54.258;12.574;2023-01-16T04:39:59;2.70;99.90
13598;DHT22;38563;54.258;12.574;2023-01-16T04:42:26;2.70;99.90
13598;DHT22;38563;54.258;12.574;2023-01-16T04:44:53;2.70;99.90
13598;DHT22;38563;54.258;12.574;2023-01-16T04:47:20;2.70;99.90
13598;DHT22;38563;54.258;12.574;2023-01-16T04:49:47;2.80;99.90
13598;DHT22;38563;54.258;12.574;2023-01-16T04:52:14;3.00;99.90
13598;DHT22;38563;54.258;12.574;2023-01-16T04:54:42;3.20;99.90
13598;DHT22;38563;54.258;12.574;2023-01-16T04:57:09;3.30;99.90
13598;DHT22;38563;54.258;12.574;2023-01-16T04:59:35;3.40;99.90
13598;DHT22;38563;54.258;12.574;2023-01-16T05:02:02;3.40;99.90
13598;DHT22;38563;54.258;12.574;2023-01-16T05:04:29;3.40;99.90
13598;DHT22;38563;54.258;12.574;2023-01-16T05:06:56;3.40;99.90
13598;DHT22;38563;54.258;12.574;2023-01-16T05:09:22;3.50;99.90
13598;DHT22;38563;54.258;12.574;2023-01-16T05:11:50;3.50;99.90
13598;DHT22;38563;54.258;12.574;2023-01-16T05:14:17;3.60;99.90
13598;DHT22;38563;54.258;12.574;2023-01-16T05:16:44;3.60;99.90
13598;DHT22;38563;54.258;12.574;2023-01-16T05:19:11;3.70;99.90
13598;DHT22;38563;54.258;12.574;2023-01-16T05:21:37;3.80;99.90
13598;DHT22;38563;54.258;12.574;2023-01-16T05:24:05;3.80;99.90
13598;DHT22;38563;54.258;12.574;2023-01-16T05:26:32;3.90;99.90
13598;DHT22;38563;54.258;12.574;2023-01-16T05:29:00;3.90;99.90
13598;DHT22;38563;54.258;12.574;2023-01-16T05:31:27;3.90;99.90
13598;DHT22;38563;54.258;12.574;2023-01-16T05:33:53;3.90;99.90
13598;DHT22;38563;54.258;12.574;2023-01-16T05:36:20;3.90;99.90
13598;DHT22;38563;54.258;12.574;2023-01-16T05:38:47;4.00;99.90
13598;DHT22;38563;54.258;12.574;2023-01-16T05:41:13;4.00;99.90
13598;DHT22;38563;54.258;12.574;2023-01-16T05:43:40;4.00;99.90
13598;DHT22;38563;54.258;12.574;2023-01-16T05:46:08;4.00;99.90
13598;DHT22;38563;54.258;12.574;2023-01-16T05:48:35;4.00;99.90
13598;DHT22;38563;54.258;12.574;2023-01-16T05:51:03;4.00;99.90
13598;DHT22;38563;54.258;12.574;2023-01-16T05:53:30;4.00;99.90
13598;DHT22;38563;54.258;12.574;2023-01-16T05:55:58;4.00;99.90
13598;DHT22;38563;54.258;12.574;2023-01-16T05:58:26;4.00;99.90
13598;DHT22;38563;54.258;12.574;2023-01-16T06:00:53;4.00;99.90
13598;DHT22;38563;54.258;12.574;2023-01-16T06:03:21;3.90;99.90
13598;DHT22;38563;54.258;12.574;2023-01-16T06:05:48;3.90;99.90
13598;DHT22;38563;54.258;12.574;2023-01-16T06:08:14;3.90;99.90
13598;DHT22;38563;54.258;12.574;2023-01-16T06:10:41;3.90;99.90
13598;DHT22;38563;54.258;12.574;2023-01-16T06:13:09;3.90;99.90
13598;DHT22;38563;54.258;12.574;2023-01-16T06:15:36;3.90;99.90
13598;DHT22;38563;54.258;12.574;2023-01-16T06:18:04;4.00;99.90
13598;DHT22;38563;54.258;12.574;2023-01-16T06:20:32;4.00;99.90
13598;DHT22;38563;54.258;12.574;2023-01-16T06:22:58;4.00;99.90
13598;DHT22;38563;54.258;12.574;2023-01-16T06:25:25;4.00;99.90
13598;DHT22;38563;54.258;12.574;2023-01-16T06:27:52;4.00;99.90
13598;DHT22;38563;54.258;12.574;2023-01-16T06:30:19;4.00;99.90
13598;DHT22;38563;54.258;12.574;2023-01-16T06:32:47;4.00;99.90
13598;DHT22;38563;54.258;12.574;2023-01-16T06:35:14;4.10;99.90
13598;DHT22;38563;54.258;12.574;2023-01-16T06:37:42;4.10;99.90
13598;DHT22;38563;54.258;12.574;2023-01-16T06:40:10;4.10;99.90
13598;DHT22;38563;54.258;12.574;2023-01-16T06:42:37;4.00;99.90
13598;DHT22;38563;54.258;12.574;2023-01-16T06:45:04;4.00;99.90
13598;DHT22;38563;54.258;12.574;2023-01-16T06:47:31;4.00;99.90
13598;DHT22;38563;54.258;12.574;2023-01-16T06:49:58;4.00;99.90
13598;DHT22;38563;54.258;12.574;2023-01-16T06:52:25;4.00;99.90
13598;DHT22;38563;54.258;12.574;2023-01-16T06:54:53;4.00;99.90
13598;DHT22;38563;54.258;12.574;2023-01-16T06:57:19;4.00;99.90
13598;DHT22;38563;54.258;12.574;2023-01-16T06:59:46;4.00;99.90
13598;DHT22;38563;54.258;12.574;2023-01-16T07:02:15;3.90;99.90
13598;DHT22;38563;54.258;12.574;2023-01-16T07:04:42;3.90;99.90
13598;DHT22;38563;54.258;12.574;2023-01-16T07:07:09;3.90;99.90
13598;DHT22;38563;54.258;12.574;2023-01-16T07:09:36;3.90;99.90
13598;DHT22;38563;54.258;12.574;2023-01-16T07:12:04;3.90;99.90
13598;DHT22;38563;54.258;12.574;2023-01-16T07:14:31;3.90;99.90
13598;DHT22;38563;54.258;12.574;2023-01-16T07:17:15;3.90;99.90
13598;DHT22;38563;54.258;12.574;2023-01-16T07:20:00;3.90;99.90
13598;DHT22;38563;54.258;12.574;2023-01-16T07:22:44;4.00;99.90
13598;DHT22;38563;54.258;12.574;2023-01-16T07:25:13;4.00;99.90
13598;DHT22;38563;54.258;12.574;2023-01-16T07:27:46;4.00;99.90
13598;DHT22;38563;54.258;12.574;2023-01-16T07:30:15;4.00;99.90
13598;DHT22;38563;54.258;12.574;2023-01-16T07:32:42;4.00;99.90
13598;DHT22;38563;54.258;12.574;2023-01-16T07:35:09;4.00;99.90
13598;DHT22;38563;54.258;12.574;2023-01-16T07:37:36;4.00;99.90
13598;DHT22;38563;54.258;12.574;2023-01-16T07:40:05;4.10;99.90
13598;DHT22;38563;54.258;12.574;2023-01-16T07:42:32;4.10;99.90
13598;DHT22;38563;54.258;12.574;2023-01-16T07:45:04;4.10;99.90
13598;DHT22;38563;54.258;12.574;2023-01-16T07:47:33;4.10;99.90
13598;DHT22;38563;54.258;12.574;2023-01-16T07:49:59;4.10;99.90
13598;DHT22;38563;54.258;12.574;2023-01-16T07:52:26;4.00;99.90
13598;DHT22;38563;54.258;12.574;2023-01-16T07:54:54;4.10;99.90
13598;DHT22;38563;54.258;12.574;2023-01-16T07:57:20;4.00;99.90
13598;DHT22;38563;54.258;12.574;2023-01-16T07:59:47;4.00;99.90
13598;DHT22;38563;54.258;12.574;2023-01-16T08:02:15;4.00;99.90
13598;DHT22;38563;54.258;12.574;2023-01-16T08:04:42;4.00;99.90
13598;DHT22;38563;54.258;12.574;2023-01-16T08:07:09;4.00;99.90
13598;DHT22;38563;54.258;12.574;2023-01-16T08:09:35;4.00;99.90
13598;DHT22;38563;54.258;12.574;2023-01-16T08:12:02;4.00;99.90
13598;DHT22;38563;54.258;12.574;2023-01-16T08:14:29;4.00;99.90
13598;DHT22;38563;54.258;12.574;2023-01-16T08:16:56;3.90;99.90
13598;DHT22;38563;54.258;12.574;2023-01-16T08:19:24;4.00;99.90
13598;DHT22;38563;54.258;12.574;2023-01-16T08:21:51;3.90;99.90
13598;DHT22;38563;54.258;12.574;2023-01-16T08:24:17;4.00;99.90
13598;DHT22;38563;54.258;12.574;2023-01-16T08:26:44;4.00;99.90
13598;DHT22;38563;54.258;12.574;2023-01-16T08:29:11;4.00;99.90
13598;DHT22;38563;54.258;12.574;2023-01-16T08:31:37;4.00;99.90
13598;DHT22;38563;54.258;12.574;2023-01-16T08:34:04;4.00;99.90
13598;DHT22;38563;54.258;12.574;2023-01-16T08:36:32;4.00;99.90
13598;DHT22;38563;54.258;12.574;2023-01-16T08:38:59;4.00;99.90
13598;DHT22;38563;54.258;12.574;2023-01-16T08:41:26;4.00;99.90
13598;DHT22;38563;54.258;12.574;2023-01-16T08:44:10;4.10;99.90
13598;DHT22;38563;54.258;12.574;2023-01-16T08:46:58;4.10;99.90
13598;DHT22;38563;54.258;12.574;2023-01-16T08:49:43;4.00;99.90
13598;DHT22;38563;54.258;12.574;2023-01-16T08:52:29;4.00;99.90
13598;DHT22;38563;54.258;12.574;2023-01-16T08:54:56;4.00;99.90
13598;DHT22;38563;54.258;12.574;2023-01-16T08:57:24;4.00;99.90
13598;DHT22;38563;54.258;12.574;2023-01-16T08:59:51;4.10;99.90
13598;DHT22;38563;54.258;12.574;2023-01-16T09:02:17;4.10;99.90
13598;DHT22;38563;54.258;12.574;2023-01-16T09:04:45;4.10;99.90
13598;DHT22;38563;54.258;12.574;2023-01-16T09:07:11;4.20;99.90
13598;DHT22;38563;54.258;12.574;2023-01-16T09:09:39;4.20;99.90
13598;DHT22;38563;54.258;12.574;2023-01-16T09:12:08;4.30;99.90
13598;DHT22;38563;54.258;12.574;2023-01-16T09:14:53;4.30;99.90
13598;DHT22;38563;54.258;12.574;2023-01-16T09:17:22;4.40;99.90
13598;DHT22;38563;54.258;12.574;2023-01-16T09:19:49;4.50;99.90
13598;DHT22;38563;54.258;12.574;2023-01-16T09:22:16;4.60;99.90
13598;DHT22;38563;54.258;12.574;2023-01-16T09:24:45;4.70;99.90
13598;DHT22;38563;54.258;12.574;2023-01-16T09:27:12;4.70;99.90
13598;DHT22;38563;54.258;12.574;2023-01-16T09:29:39;4.70;99.90
13598;DHT22;38563;54.258;12.574;2023-01-16T09:32:06;4.80;99.90
13598;DHT22;38563;54.258;12.574;2023-01-16T09:34:35;4.80;99.90
13598;DHT22;38563;54.258;12.574;2023-01-16T09:37:02;4.90;99.90
13598;DHT22;38563;54.258;12.574;2023-01-16T09:39:28;4.90;99.90
13598;DHT22;38563;54.258;12.574;2023-01-16T09:45:08;4.90;99.90
13598;DHT22;38563;54.258;12.574;2023-01-16T09:47:37;5.00;99.90
13598;DHT22;38563;54.258;12.574;2023-01-16T09:50:12;5.00;99.90
13598;DHT22;38563;54.258;12.574;2023-01-16T09:52:41;5.10;99.90
13598;DHT22;38563;54.258;12.574;2023-01-16T09:55:32;5.10;99.90
13598;DHT22;38563;54.258;12.574;2023-01-16T09:58:21;5.30;99.90
13598;DHT22;38563;54.258;12.574;2023-01-16T10:01:05;5.30;99.90
13598;DHT22;38563;54.258;12.574;2023-01-16T10:03:32;5.30;99.90
13598;DHT22;38563;54.258;12.574;2023-01-16T10:06:08;5.20;99.90
13598;DHT22;38563;54.258;12.574;2023-01-16T10:08:40;5.10;99.90
13598;DHT22;38563;54.258;12.574;2023-01-16T10:11:17;5.10;99.90
13598;DHT22;38563;54.258;12.574;2023-01-16T10:14:01;5.10;99.90
13598;DHT22;38563;54.258;12.574;2023-01-16T10:16:45;5.00;99.90
13598;DHT22;38563;54.258;12.574;2023-01-16T10:19:30;5.00;99.90
13598;DHT22;38563;54.258;12.574;2023-01-16T10:22:15;5.00;99.90
13598;DHT22;38563;54.258;12.574;2023-01-16T10:24:51;5.00;99.90
13598;DHT22;38563;54.258;12.574;2023-01-16T10:27:28;5.00;99.90
13598;DHT22;38563;54.258;12.574;2023-01-16T10:30:03;5.10;99.90
13598;DHT22;38563;54.258;12.574;2023-01-16T10:32:33;5.00;99.90
13598;DHT22;38563;54.258;12.574;2023-01-16T10:35:06;5.00;99.90
13598;DHT22;38563;54.258;12.574;2023-01-16T10:37:35;5.00;99.90
13598;DHT22;38563;54.258;12.574;2023-01-16T10:40:11;4.90;99.90
13598;DHT22;38563;54.258;12.574;2023-01-16T10:42:41;4.90;99.90
13598;DHT22;38563;54.258;12.574;2023-01-16T10:45:30;4.90;99.90
13598;DHT22;38563;54.258;12.574;2023-01-16T10:48:17;4.90;99.90
13598;DHT22;38563;54.258;12.574;2023-01-16T10:51:02;4.90;99.90
13598;DHT22;38563;54.258;12.574;2023-01-16T10:53:30;4.90;99.90
13598;DHT22;38563;54.258;12.574;2023-01-16T10:55:58;5.10;99.90
13598;DHT22;38563;54.258;12.574;2023-01-16T10:58:27;5.20;99.90
13598;DHT22;38563;54.258;12.574;2023-01-16T11:00:59;5.30;99.90
13598;DHT22;38563;54.258;12.574;2023-01-16T11:03:32;5.40;99.90
13598;DHT22;38563;54.258;12.574;2023-01-16T11:06:11;5.50;99.90
13598;DHT22;38563;54.258;12.574;2023-01-16T11:08:38;5.50;99.90
13598;DHT22;38563;54.258;12.574;2023-01-16T11:11:07;5.50;99.90
13598;DHT22;38563;54.258;12.574;2023-01-16T11:13:55;5.40;99.90
13598;DHT22;38563;54.258;12.574;2023-01-16T11:16:40;5.40;99.90
13598;DHT22;38563;54.258;12.574;2023-01-16T11:19:26;5.40;99.90
13598;DHT22;38563;54.258;12.574;2023-01-16T11:21:57;5.40;99.90
13598;DHT22;38563;54.258;12.574;2023-01-16T11:24:30;5.40;99.90
13598;DHT22;38563;54.258;12.574;2023-01-16T11:26:59;5.40;99.90
13598;DHT22;38563;54.258;12.574;2023-01-16T11:29:33;5.40;99.90
13598;DHT22;38563;54.258;12.574;2023-01-16T11:32:06;5.40;99.90
13598;DHT22;38563;54.258;12.574;2023-01-16T11:34:37;5.40;99.90
13598;DHT22;38563;54.258;12.574;2023-01-16T11:37:06;5.30;99.90
13598;DHT22;38563;54.258;12.574;2023-01-16T11:39:35;5.30;99.90
13598;DHT22;38563;54.258;12.574;2023-01-16T11:42:04;5.30;99.90
13598;DHT22;38563;54.258;12.574;2023-01-16T11:44:59;5.30;99.90
13598;DHT22;38563;54.258;12.574;2023-01-16T11:47:53;5.40;99.90
13598;DHT22;38563;54.258;12.574;2023-01-16T11:50:26;5.40;99.90
13598;DHT22;38563;54.258;12.574;2023-01-16T11:52:54;5.40;99.90
13598;DHT22;38563;54.258;12.574;2023-01-16T11:55:21;5.30;99.90
13598;DHT22;38563;54.258;12.574;2023-01-16T11:57:56;5.30;99.90
13598;DHT22;38563;54.258;12.574;2023-01-16T12:00:38;5.40;99.90
13598;DHT22;38563;54.258;12.574;2023-01-16T12:06:07;5.50;99.90
13598;DHT22;38563;54.258;12.574;2023-01-16T12:08:56;5.50;99.90
13598;DHT22;38563;54.258;12.574;2023-01-16T12:11:44;5.40;99.90
13598;DHT22;38563;54.258;12.574;2023-01-16T12:14:22;5.40;99.90
13598;DHT22;38563;54.258;12.574;2023-01-16T12:17:06;5.50;99.90
13598;DHT22;38563;54.258;12.574;2023-01-16T12:19:55;5.40;99.90
13598;DHT22;38563;54.258;12.574;2023-01-16T12:22:32;5.50;99.90
13598;DHT22;38563;54.258;12.574;2023-01-16T12:25:08;5.50;99.90
13598;DHT22;38563;54.258;12.574;2023-01-16T12:27:49;5.40;99.90
13598;DHT22;38563;54.258;12.574;2023-01-16T12:30:25;5.40;99.90
13598;DHT22;38563;54.258;12.574;2023-01-16T12:33:04;5.40;99.90
13598;DHT22;38563;54.258;12.574;2023-01-16T12:35:47;5.30;99.90
13598;DHT22;38563;54.258;12.574;2023-01-16T12:38:18;5.20;99.90
13598;DHT22;38563;54.258;12.574;2023-01-16T12:41:03;5.20;99.90
13598;DHT22;38563;54.258;12.574;2023-01-16T12:44:01;5.30;99.90
13598;DHT22;38563;54.258;12.574;2023-01-16T12:46:35;5.40;99.90
13598;DHT22;38563;54.258;12.574;2023-01-16T12:49:18;5.30;99.90
13598;DHT22;38563;54.258;12.574;2023-01-16T12:52:04;5.30;99.90
13598;DHT22;38563;54.258;12.574;2023-01-16T12:54:40;5.30;99.90
13598;DHT22;38563;54.258;12.574;2023-01-16T12:57:24;5.30;99.90
13598;DHT22;38563;54.258;12.574;2023-01-16T12:59:58;5.40;99.90
13598;DHT22;38563;54.258;12.574;2023-01-16T13:02:32;5.30;99.90
13598;DHT22;38563;54.258;12.574;2023-01-16T13:05:03;5.40;99.90
13598;DHT22;38563;54.258;12.574;2023-01-16T13:07:36;5.40;99.90
13598;DHT22;38563;54.258;12.574;2023-01-16T13:10:11;5.30;99.90
13598;DHT22;38563;54.258;12.574;2023-01-16T13:12:59;5.30;99.90
13598;DHT22;38563;54.258;12.574;2023-01-16T13:15:46;5.30;99.90
13598;DHT22;38563;54.258;12.574;2023-01-16T13:18:19;5.30;99.90
13598;DHT22;38563;54.258;12.574;2023-01-16T13:20:51;5.30;99.90
13598;DHT22;38563;54.258;12.574;2023-01-16T13:23:22;5.20;99.90
13598;DHT22;38563;54.258;12.574;2023-01-16T13:25:54;5.20;99.90
13598;DHT22;38563;54.258;12.574;2023-01-16T13:28:29;5.10;99.90
13598;DHT22;38563;54.258;12.574;2023-01-16T13:30:59;5.10;99.90
13598;DHT22;38563;54.258;12.574;2023-01-16T13:33:30;5.00;99.90
13598;DHT22;38563;54.258;12.574;2023-01-16T13:36:03;5.00;99.90
13598;DHT22;38563;54.258;12.574;2023-01-16T13:38:54;5.00;99.90
13598;DHT22;38563;54.258;12.574;2023-01-16T13:41:26;4.90;99.90
13598;DHT22;38563;54.258;12.574;2023-01-16T13:43:57;4.90;99.90
13598;DHT22;38563;54.258;12.574;2023-01-16T13:46:44;4.90;99.90
13598;DHT22;38563;54.258;12.574;2023-01-16T13:49:17;4.80;99.90
13598;DHT22;38563;54.258;12.574;2023-01-16T13:51:47;4.80;99.90
13598;DHT22;38563;54.258;12.574;2023-01-16T13:54:19;4.80;99.90
13598;DHT22;38563;54.258;12.574;2023-01-16T13:56:56;4.80;99.90
13598;DHT22;38563;54.258;12.574;2023-01-16T13:59:38;4.70;99.90
13598;DHT22;38563;54.258;12.574;2023-01-16T14:02:25;4.70;99.90
13598;DHT22;38563;54.258;12.574;2023-01-16T14:05:24;4.70;99.90
13598;DHT22;38563;54.258;12.574;2023-01-16T14:08:26;4.70;99.90
13598;DHT22;38563;54.258;12.574;2023-01-16T14:11:34;4.60;99.90
13598;DHT22;38563;54.258;12.574;2023-01-16T14:17:20;4.60;99.90
13598;DHT22;38563;54.258;12.574;2023-01-16T14:19:54;4.60;99.90
13598;DHT22;38563;54.258;12.574;2023-01-16T14:22:23;4.60;99.90
13598;DHT22;38563;54.258;12.574;2023-01-16T14:25:20;4.60;99.90
13598;DHT22;38563;54.258;12.574;2023-01-16T14:27:51;4.60;99.90
13598;DHT22;38563;54.258;12.574;2023-01-16T14:30:23;4.60;99.90
13598;DHT22;38563;54.258;12.574;2023-01-16T14:32:53;4.60;99.90
13598;DHT22;38563;54.258;12.574;2023-01-16T14:35:22;4.60;99.90
13598;DHT22;38563;54.258;12.574;2023-01-16T14:37:58;4.60;99.90
13598;DHT22;38563;54.258;12.574;2023-01-16T14:40:27;4.60;99.90
13598;DHT22;38563;54.258;12.574;2023-01-16T14:43:14;4.60;99.90
13598;DHT22;38563;54.258;12.574;2023-01-16T14:46:25;4.60;99.90
13598;DHT22;38563;54.258;12.574;2023-01-16T14:49:43;4.60;99.90
13598;DHT22;38563;54.258;12.574;2023-01-16T14:52:48;4.50;99.90
13598;DHT22;38563;54.258;12.574;2023-01-16T14:55:46;4.50;99.90
13598;DHT22;38563;54.258;12.574;2023-01-16T14:58:20;4.50;99.90
13598;DHT22;38563;54.258;12.574;2023-01-16T15:00:50;4.50;99.90
13598;DHT22;38563;54.258;12.574;2023-01-16T15:03:22;4.50;99.90
13598;DHT22;38563;54.258;12.574;2023-01-16T15:05:56;4.50;99.90
13598;DHT22;38563;54.258;12.574;2023-01-16T15:08:27;4.50;99.90
13598;DHT22;38563;54.258;12.574;2023-01-16T15:10:55;4.50;99.90
13598;DHT22;38563;54.258;12.574;2023-01-16T15:13:26;4.50;99.90
13598;DHT22;38563;54.258;12.574;2023-01-16T15:15:56;4.40;99.90
13598;DHT22;38563;54.258;12.574;2023-01-16T15:18:25;4.40;99.90
13598;DHT22;38563;54.258;12.574;2023-01-16T15:21:12;4.40;99.90
13598;DHT22;38563;54.258;12.574;2023-01-16T15:23:57;4.40;99.90
13598;DHT22;38563;54.258;12.574;2023-01-16T15:26:46;4.40;99.90
13598;DHT22;38563;54.258;12.574;2023-01-16T15:29:37;4.40;99.90
13598;DHT22;38563;54.258;12.574;2023-01-16T15:32:11;4.40;99.90
13598;DHT22;38563;54.258;12.574;2023-01-16T15:34:43;4.40;99.90
13598;DHT22;38563;54.258;12.574;2023-01-16T15:37:20;4.40;99.90
13598;DHT22;38563;54.258;12.574;2023-01-16T15:39:47;4.40;99.90
13598;DHT22;38563;54.258;12.574;2023-01-16T15:42:17;4.40;99.90
13598;DHT22;38563;54.258;12.574;2023-01-16T15:45:15;4.40;99.90
13598;DHT22;38563;54.258;12.574;2023-01-16T15:48:16;4.40;99.90
13598;DHT22;38563;54.258;12.574;2023-01-16T15:50:53;4.30;99.90
13598;DHT22;38563;54.258;12.574;2023-01-16T15:53:22;4.40;99.90
13598;DHT22;38563;54.258;12.574;2023-01-16T15:55:52;4.40;99.90
13598;DHT22;38563;54.258;12.574;2023-01-16T15:58:20;4.40;99.90
13598;DHT22;38563;54.258;12.574;2023-01-16T16:00:55;4.40;99.90
13598;DHT22;38563;54.258;12.574;2023-01-16T16:03:24;4.40;99.90
13598;DHT22;38563;54.258;12.574;2023-01-16T16:05:57;4.30;99.90
13598;DHT22;38563;54.258;12.574;2023-01-16T16:08:27;4.30;99.90
13598;DHT22;38563;54.258;12.574;2023-01-16T16:10:56;4.30;99.90
13598;DHT22;38563;54.258;12.574;2023-01-16T16:13:42;4.30;99.90
13598;DHT22;38563;54.258;12.574;2023-01-16T16:16:18;4.30;99.90
13598;DHT22;38563;54.258;12.574;2023-01-16T16:19:03;4.30;99.90